Airfield :
LOGIN :

Register | Disclaimer

   EN    FR    IT 

 










Legend :    VFR   Marginal VFR   IFR   Intensive IFR   Very Intensive IFR
Visi :
Ceiling :
>= 8 km
>= 3000ft
5 to 8 km
1000 to 3000 ft
1500m to 5 km
500 to 1000 ft
800 to 1500m
200 to 500 ft
< 800m
< 200 ft
Symbols :   Thunderstorms  Fog  Heavy snow  Heavy precipitations  Wind > 20 kt
SIGMETs :     Misc.  Thunderstorms  Icing  Turbulence  Mountain Waves  Volcanic Ashes






- Airport Elevation : 49 ft
- IATA code : SEN


EGMC - Southend

CURRENT METAR :
  • 291950Z 23016KT 9999 BKN020 14/12 Q1012

EXPIRED METARs :
  • 291920Z 23015KT 9999 BKN020 14/12 Q1012
  • 291850Z 22017KT 9999 SCT019 SCT024 14/12 Q1012
  • 291820Z 22015KT 9999 FEW022 BKN046 14/12 Q1011
  • 291750Z 23015KT 9999 FEW023 BKN046 14/12 Q1012
  • 291720Z 23015KT 9999 FEW017 BKN044 14/12 Q1011
  • 291650Z 22016KT 9999 SCT015 BKN017 14/12 Q1011

TAF TAF EGMC
Valid from the 29 at 18:00 until the 30 at 03:00 UTC


291659Z 2918/3003 22015KT 9999 SCT012 BKN018
TEMPO 2918/3003 23018G28KT 6000 -RADZ BKN012



MET'MAP, your aeronautical weather chart ! - Copyright ORBIFLY December 2007 - Disclaimer

ORBIFLY MET'MAP TEAM :

Programming & Development : Alexandra Zaïnal
Concept & original design : Baudouin d'Aumeries
Assistance for programming : Marc-Olivier Méhu
Technical & hardware support : Manuel Goepfert

Contact : metmap@orbifly.com




SOURCES & CREDITS :

   NOAA